Time,TemperatureF,DewpointF,PressureIn,WindDirection,WindDirectionDegrees,WindSpeedMPH,WindSpeedGustMPH,Humidity,HourlyPrecipIn,Conditions,Clouds,dailyrainin,SolarRadiationWatts/m^2,SoftwareType,DateUTC
2013-06-25 00:22:00,52.0,48.0,-100.00,SSW,196,6.0,10.0,87,0.01,,,0.43,157.000000,,2013-06-25 00:22:00,
2013-06-25 00:33:00,52.0,48.0,-100.00,SSW,196,6.0,10.0,87,0.01,,,0.43,157.000000,,2013-06-25 00:33:00,
2013-06-25 00:45:00,52.0,48.0,-100.00,SSW,196,6.0,10.0,87,0.01,,,0.43,157.000000,,2013-06-25 00:45:00,
2013-06-25 01:23:00,53.0,50.0,-100.00,South,171,7.0,13.0,88,0.01,,,0.39,150.000000,,2013-06-25 01:23:00,
2013-06-25 01:33:00,53.0,50.0,-100.00,South,171,7.0,13.0,88,0.01,,,0.39,150.000000,,2013-06-25 01:33:00,
2013-06-25 01:44:00,53.0,50.0,-100.00,South,171,7.0,13.0,88,0.01,,,0.39,150.000000,,2013-06-25 01:44:00,
2013-06-25 01:53:00,53.0,50.0,-100.00,South,171,7.0,13.0,88,0.01,,,0.39,150.000000,,2013-06-25 01:53:00,
2013-06-25 02:24:00,52.0,49.0,-100.00,South,174,7.0,16.0,89,0.00,,,0.39,100.000000,,2013-06-25 02:24:00,
2013-06-25 02:35:00,52.0,49.0,-100.00,South,174,7.0,16.0,89,0.00,,,0.39,100.000000,,2013-06-25 02:35:00,
2013-06-25 02:43:00,52.0,49.0,-100.00,South,174,7.0,16.0,89,0.00,,,0.39,100.000000,,2013-06-25 02:43:00,
2013-06-25 02:54:00,52.0,49.0,-100.00,South,174,7.0,16.0,89,0.00,,,0.39,100.000000,,2013-06-25 02:54:00,
2013-06-25 03:37:00,52.0,47.0,-100.00,South,174,6.0,15.0,84,0.00,,,0.30,57.000000,,2013-06-25 03:37:00,
2013-06-25 03:54:00,52.0,47.0,-100.00,South,174,6.0,15.0,84,0.00,,,0.30,57.000000,,2013-06-25 03:54:00,
2013-06-25 04:22:00,51.0,45.0,-100.00,South,176,6.0,12.0,79,0.00,,,0.30,15.000000,,2013-06-25 04:22:00,
2013-06-25 04:34:00,51.0,45.0,-100.00,South,176,6.0,12.0,79,0.00,,,0.30,15.000000,,2013-06-25 04:34:00,
2013-06-25 04:42:00,51.0,45.0,-100.00,South,176,6.0,12.0,79,0.00,,,0.30,15.000000,,2013-06-25 04:42:00,
2013-06-25 04:52:00,51.0,45.0,-100.00,South,176,6.0,12.0,79,0.00,,,0.30,15.000000,,2013-06-25 04:52:00,
2013-06-25 05:22:00,50.0,43.0,-100.00,South,172,6.0,12.0,77,0.00,,,0.30,1.000000,,2013-06-25 05:22:00,
2013-06-25 05:32:00,50.0,43.0,-100.00,South,172,6.0,12.0,77,0.00,,,0.30,1.000000,,2013-06-25 05:32:00,
2013-06-25 05:44:00,50.0,43.0,-100.00,South,172,6.0,12.0,77,0.00,,,0.30,1.000000,,2013-06-25 05:44:00,
2013-06-25 05:52:00,50.0,43.0,-100.00,South,172,6.0,12.0,77,0.00,,,0.30,1.000000,,2013-06-25 05:52:00,
2013-06-25 06:21:00,49.0,43.0,-100.00,East,99,3.0,12.0,80,0.00,,,0.30,1.000000,,2013-06-25 06:21:00,
2013-06-25 06:33:00,49.0,43.0,-100.00,East,99,3.0,12.0,80,0.00,,,0.30,1.000000,,2013-06-25 06:33:00,
2013-06-25 06:43:00,49.0,43.0,-100.00,East,99,3.0,12.0,80,0.00,,,0.30,1.000000,,2013-06-25 06:43:00,
2013-06-25 06:52:00,49.0,43.0,-100.00,East,99,3.0,12.0,80,0.00,,,0.30,1.000000,,2013-06-25 06:52:00,
2013-06-25 08:43:00,48.0,44.0,-100.00,SSE,153,5.0,11.0,86,-99.99,,,0.32,1.000000,,2013-06-25 08:43:00,
2013-06-25 08:52:00,48.0,44.0,-100.00,SSE,153,5.0,11.0,86,-99.99,,,0.32,1.000000,,2013-06-25 08:52:00,
2013-06-25 09:21:00,49.0,45.0,-100.00,South,171,8.0,20.0,86,0.00,,,0.32,1.000000,,2013-06-25 09:21:00,
2013-06-25 09:33:00,49.0,45.0,-100.00,South,171,8.0,20.0,86,0.00,,,0.32,1.000000,,2013-06-25 09:33:00,
2013-06-25 09:43:00,49.0,45.0,-100.00,South,171,8.0,20.0,86,0.00,,,0.32,1.000000,,2013-06-25 09:43:00,
2013-06-25 09:52:00,49.0,45.0,-100.00,South,171,8.0,20.0,86,0.00,,,0.32,1.000000,,2013-06-25 09:52:00,
2013-06-25 10:33:00,49.0,44.0,-100.00,South,178,8.0,14.0,83,0.00,,,0.32,1.000000,,2013-06-25 10:33:00,
2013-06-25 10:42:00,49.0,44.0,-100.00,South,178,8.0,14.0,83,0.00,,,0.32,1.000000,,2013-06-25 10:42:00,
2013-06-25 10:52:00,49.0,44.0,-100.00,South,178,8.0,14.0,83,0.00,,,0.32,1.000000,,2013-06-25 10:52:00,
2013-06-25 12:43:00,50.0,45.0,-100.00,South,182,6.0,14.0,82,-99.99,,,0.32,1.000000,,2013-06-25 12:43:00,
2013-06-25 12:55:00,50.0,45.0,-100.00,South,182,6.0,14.0,82,-99.99,,,0.32,1.000000,,2013-06-25 12:55:00,
2013-06-25 13:22:00,50.0,45.0,-100.00,South,169,5.0,16.0,82,0.00,,,0.30,3.000000,,2013-06-25 13:22:00,
2013-06-25 13:34:00,50.0,45.0,-100.00,South,169,5.0,16.0,82,0.00,,,0.30,3.000000,,2013-06-25 13:34:00,
2013-06-25 13:42:00,50.0,45.0,-100.00,South,169,5.0,16.0,82,0.00,,,0.30,3.000000,,2013-06-25 13:42:00,
2013-06-25 13:53:00,50.0,45.0,-100.00,South,169,5.0,16.0,82,0.00,,,0.30,3.000000,,2013-06-25 13:53:00,
2013-06-25 14:42:00,50.0,45.0,-100.00,SE,132,3.0,7.0,83,0.00,,,0.25,31.000000,,2013-06-25 14:42:00,
2013-06-25 14:53:00,50.0,45.0,-100.00,SE,132,3.0,7.0,83,0.00,,,0.25,31.000000,,2013-06-25 14:53:00,
2013-06-25 15:44:00,51.0,46.0,-100.00,NE,56,3.0,11.0,83,0.00,,,0.21,42.000000,,2013-06-25 15:44:00,
2013-06-25 15:53:00,51.0,46.0,-100.00,NE,56,3.0,11.0,83,0.00,,,0.21,42.000000,,2013-06-25 15:53:00,
2013-06-25 16:23:00,51.0,46.0,-100.00,South,175,5.0,13.0,84,0.00,,,0.15,100.000000,,2013-06-25 16:23:00,
2013-06-25 16:34:00,51.0,46.0,-100.00,South,175,5.0,13.0,84,0.00,,,0.15,100.000000,,2013-06-25 16:34:00,
2013-06-25 16:44:00,51.0,46.0,-100.00,South,175,5.0,13.0,84,0.00,,,0.15,100.000000,,2013-06-25 16:44:00,
2013-06-25 16:52:00,51.0,46.0,-100.00,South,175,5.0,13.0,84,0.00,,,0.15,100.000000,,2013-06-25 16:52:00,
2013-06-25 17:44:00,51.0,48.0,-100.00,SSE,167,5.0,14.0,91,0.03,,,0.17,112.000000,,2013-06-25 17:44:00,
2013-06-25 17:53:00,51.0,48.0,-100.00,SSE,167,5.0,14.0,91,0.03,,,0.17,112.000000,,2013-06-25 17:53:00,
2013-06-25 18:22:00,52.0,49.0,-100.00,South,186,5.0,10.0,88,0.01,,,0.16,121.000000,,2013-06-25 18:22:00,
2013-06-25 18:34:00,52.0,49.0,-100.00,South,186,5.0,10.0,88,0.01,,,0.16,121.000000,,2013-06-25 18:34:00,
2013-06-25 18:44:00,52.0,49.0,-100.00,South,186,5.0,10.0,88,0.01,,,0.16,121.000000,,2013-06-25 18:44:00,
2013-06-25 18:52:00,52.0,49.0,-100.00,South,186,5.0,10.0,88,0.01,,,0.16,121.000000,,2013-06-25 18:52:00,
2013-06-25 19:44:00,53.0,50.0,-100.00,South,175,5.0,11.0,91,0.01,,,-99.99,144.000000,,2013-06-25 19:44:00,
2013-06-25 19:53:00,53.0,50.0,-100.00,South,175,5.0,11.0,91,0.01,,,-99.99,144.000000,,2013-06-25 19:53:00,
2013-06-25 20:33:00,55.0,51.0,-100.00,SSW,194,8.0,14.0,86,0.00,,,0.11,233.000000,,2013-06-25 20:33:00,
2013-06-25 20:42:00,55.0,51.0,-100.00,SSW,194,8.0,14.0,86,0.00,,,0.11,233.000000,,2013-06-25 20:42:00,
2013-06-25 20:52:00,55.0,51.0,-100.00,SSW,194,8.0,14.0,86,0.00,,,0.11,233.000000,,2013-06-25 20:52:00,
2013-06-25 21:22:00,55.0,51.0,-100.00,SW,221,5.0,18.0,86,0.01,,,0.12,380.000000,,2013-06-25 21:22:00,
2013-06-25 21:33:00,55.0,51.0,-100.00,SW,221,5.0,18.0,86,0.01,,,0.12,380.000000,,2013-06-25 21:33:00,
2013-06-25 21:43:00,55.0,51.0,-100.00,SW,221,5.0,18.0,86,0.01,,,0.12,380.000000,,2013-06-25 21:43:00,
2013-06-25 21:53:00,55.0,51.0,-100.00,SW,221,5.0,18.0,86,0.01,,,0.12,380.000000,,2013-06-25 21:53:00,
2013-06-25 22:22:00,57.0,50.0,-100.00,SSW,213,8.0,16.0,77,0.01,,,0.13,385.000000,,2013-06-25 22:22:00,
2013-06-25 22:33:00,57.0,50.0,-100.00,SSW,213,8.0,16.0,77,0.01,,,0.13,385.000000,,2013-06-25 22:33:00,
2013-06-25 22:42:00,57.0,50.0,-100.00,SSW,213,8.0,16.0,77,0.01,,,0.13,385.000000,,2013-06-25 22:42:00,
2013-06-25 22:52:00,57.0,50.0,-100.00,SSW,213,8.0,16.0,77,0.01,,,0.13,385.000000,,2013-06-25 22:52:00,
2013-06-25 23:22:00,56.0,47.0,-100.00,SW,233,12.0,32.0,73,0.00,,,0.11,219.000000,,2013-06-25 23:22:00,
2013-06-25 23:34:00,56.0,47.0,-100.00,SW,233,12.0,32.0,73,0.00,,,0.11,219.000000,,2013-06-25 23:34:00,
2013-06-25 23:43:00,56.0,47.0,-100.00,SW,233,12.0,32.0,73,0.00,,,0.11,219.000000,,2013-06-25 23:43:00,
2013-06-25 23:52:00,56.0,47.0,-100.00,SW,233,12.0,32.0,73,0.00,,,0.11,219.000000,,2013-06-25 23:52:00,